M I D A S
Marine Information and Data Acquisition System
Tripno 1600 of the Zeeleeuw from 2008-10-31 07:38:19 to 2008-10-31 15:32:40
Back to CruiseResearch ActivitiesStationsMapUnderway DataData graphs

EquipmentUnitsComments
TimeDGPSUTC
LatitudeDGPSDM.mWGS84
LongitudeDGPSDM.mWGS84
SpeedMeteo Stationm/sRelative wind speed
DirectionMeteo StationdegRelative wind direction
TemperatureMeteo Stationdeg CelciusAir temperature
PressureMeteo StationPaAtmospheric pressure
HumidityMeteo Station%Relative humidity
Missing or incorrect values are displayed as -999
Metereological data collected by the RV Zeeleeuw from 2008-10-31 07:39:31 to 2008-10-31 15:34:55
Time Latitude Longitude Speed Direction Temperature Pressure Humidity
2008-10-31 07:40 51°13.64 2°55.965 0.8 261 4.2 100380 85
2008-10-31 07:41 51°13.671 2°55.855 1.7 263 4.3 100380 86
2008-10-31 07:42 51°13.694 2°55.798 2.6 320 4.2 100390 86
2008-10-31 07:43 51°13.698 2°55.741 3.3 326 4.3 100390 85
2008-10-31 07:44 51°13.7 2°55.729 3.2 335 4.3 100390 85
2008-10-31 07:45 51°13.735 2°55.73 3.8 346 4.3 100390 86
2008-10-31 07:46 51°13.828 2°55.64 7.1 348 4.3 100390 85
2008-10-31 07:47 51°13.929 2°55.553 4.5 355 4.3 100390 85
2008-10-31 07:48 51°14.029 2°55.477 6.2 351 4.4 100390 86
2008-10-31 07:49 51°14.16 2°55.374 4.5 351 4.3 100390 85
2008-10-31 07:50 51°14.298 2°55.188 5.4 1 4.3 100400 85
2008-10-31 07:51 51°14.404 2°54.929 5.7 10 4.4 100390 85
2008-10-31 07:52 51°14.555 2°54.722 8.7 7 4.5 100380 86
2008-10-31 07:53 51°14.719 2°54.534 7.7 6 4.6 100380 85
2008-10-31 07:54 51°14.885 2°54.358 8.1 9 4.8 100370 87
2008-10-31 07:55 51°15.051 2°54.201 7.2 7 4.8 100380 86
2008-10-31 07:56 51°15.218 2°54.042 6.1 7 4.8 100380 85
2008-10-31 07:57 51°15.386 2°53.88 7.1 5 4.8 100380 85
2008-10-31 07:58 51°15.555 2°53.718 7.3 5 4.8 100380 85
2008-10-31 07:59 51°15.728 2°53.568 7.9 359 4.9 100370 85
2008-10-31 08:00 51°15.901 2°53.416 8.4 -999 4.9 100370 85
2008-10-31 08:01 51°16.074 2°53.266 6.8 7 5 100380 85
2008-10-31 08:02 51°16.245 2°53.108 6.8 8 5.1 100380 85
2008-10-31 08:03 51°16.417 2°52.957 7.7 2 5.1 100370 86
2008-10-31 08:04 51°16.594 2°52.819 6.4 4 5.1 100370 86
2008-10-31 08:05 51°16.77 2°52.697 8 -999 5.1 100380 86
2008-10-31 08:06 51°16.941 2°52.572 7.5 7 5.2 100370 87
2008-10-31 08:07 51°17.116 2°52.459 6.6 3 5.2 100380 87
2008-10-31 08:08 51°17.29 2°52.332 7.1 2 5.1 100380 85
2008-10-31 08:09 51°17.457 2°52.182 7.7 355 5.1 100380 86
2008-10-31 08:10 51°17.617 2°52.018 5.2 358 5.2 100390 86
2008-10-31 08:11 51°17.78 2°51.862 6.1 13 5.2 100380 85
2008-10-31 08:12 51°17.941 2°51.695 5.6 3 5.4 100390 87
2008-10-31 08:13 51°18.103 2°51.528 8.1 -999 5.3 100380 87
2008-10-31 08:14 51°18.266 2°51.359 6.4 2 5.3 100380 85
2008-10-31 08:15 51°18.43 2°51.187 8.7 358 5.3 100380 86
2008-10-31 08:16 51°18.593 2°51.013 8.3 353 5.4 100370 84
2008-10-31 08:17 51°18.756 2°50.841 8.1 359 5.5 100370 83
2008-10-31 08:18 51°18.919 2°50.667 9.5 350 5.6 100370 84
2008-10-31 08:19 51°19.082 2°50.493 11 352 5.5 100370 82
2008-10-31 08:20 51°19.247 2°50.326 11.6 355 5.6 100360 82
2008-10-31 08:21 51°19.413 2°50.163 8.4 356 5.5 100370 80
2008-10-31 08:22 51°19.579 2°49.994 9.3 359 5.6 100380 82
2008-10-31 08:23 51°19.746 2°49.827 7.5 357 5.6 100370 82
2008-10-31 08:24 51°19.916 2°49.666 7.6 3 5.6 100390 82
2008-10-31 08:25 51°20.08 2°49.483 9.7 358 5.7 100380 84
2008-10-31 08:26 51°20.244 2°49.296 11.6 354 5.8 100380 84
2008-10-31 08:27 51°20.407 2°49.107 10.7 354 5.7 100370 82
2008-10-31 08:28 51°20.573 2°48.917 8.7 355 5.7 100380 83
2008-10-31 08:29 51°20.738 2°48.728 8.8 355 5.7 100370 83
2008-10-31 08:30 51°20.902 2°48.539 9.1 354 5.7 100390 82
2008-10-31 08:31 51°21.07 2°48.356 10 355 5.7 100390 85
2008-10-31 08:32 51°21.237 2°48.173 10.1 355 5.7 100380 83
2008-10-31 08:33 51°21.405 2°47.99 7.9 357 5.7 100390 83
2008-10-31 08:34 51°21.572 2°47.806 8.2 358 5.7 100390 83
2008-10-31 08:35 51°21.742 2°47.633 9.7 355 5.7 100390 84
2008-10-31 08:36 51°21.915 2°47.48 8.8 352 5.6 100390 83
2008-10-31 08:37 51°22.091 2°47.345 11.8 354 5.7 100390 84
2008-10-31 08:38 51°22.267 2°47.218 9.2 359 5.7 100380 84
2008-10-31 08:39 51°22.439 2°47.088 7.8 358 5.7 100380 83
2008-10-31 08:40 51°22.612 2°46.959 9.3 356 5.8 100400 84
2008-10-31 08:41 51°22.784 2°46.827 10.2 353 5.9 100400 84
2008-10-31 08:42 51°22.956 2°46.694 9.5 356 5.8 100390 83
2008-10-31 08:43 51°23.131 2°46.564 10.7 360 5.8 100410 84
2008-10-31 08:44 51°23.305 2°46.431 10 355 5.8 100410 84
2008-10-31 08:45 51°23.477 2°46.297 10.3 356 5.8 100390 83
2008-10-31 08:46 51°23.65 2°46.167 10.2 358 5.8 100410 81
2008-10-31 08:47 51°23.823 2°46.032 9.9 1 5.9 100400 83
2008-10-31 08:48 51°23.996 2°45.903 10.9 358 5.9 100410 83
2008-10-31 08:49 51°24.166 2°45.928 14.7 343 5.9 100410 81
2008-10-31 08:50 51°24.308 2°46.062 12 338 5.9 100410 82
2008-10-31 08:51 51°24.435 2°46.232 11.7 339 5.9 100410 83
2008-10-31 08:52 51°24.564 2°46.401 13 340 6 100400 84
2008-10-31 08:53 51°24.687 2°46.578 12.8 340 6 100400 84
2008-10-31 08:54 51°24.8 2°46.772 12.7 340 6 100400 85
2008-10-31 08:55 51°24.904 2°46.98 11.2 338 6 100400 84
2008-10-31 08:56 51°25.01 2°47.188 11.5 341 5.9 100410 83
2008-10-31 08:57 51°25.115 2°47.396 12.4 335 6 100410 85
2008-10-31 08:58 51°25.212 2°47.615 12.3 339 5.9 100420 84
2008-10-31 08:59 51°25.301 2°47.844 15 335 5.9 100400 85
2008-10-31 09:00 51°25.386 2°48.077 14.8 340 6 100420 85
2008-10-31 09:01 51°25.477 2°48.308 13.4 338 5.9 100420 83
2008-10-31 09:02 51°25.563 2°48.545 12.5 333 5.9 100420 84
2008-10-31 09:03 51°25.649 2°48.781 12.4 339 5.8 100430 84
2008-10-31 09:04 51°25.743 2°49.011 14.6 338 5.8 100430 85
2008-10-31 09:05 51°25.839 2°49.236 12.8 339 5.9 100430 85
2008-10-31 09:06 51°25.936 2°49.461 11.4 336 5.9 100440 85
2008-10-31 09:07 51°26.034 2°49.688 12.5 337 5.9 100420 85
2008-10-31 09:08 51°26.133 2°49.914 13 341 5.9 100420 85
2008-10-31 09:09 51°26.23 2°50.147 11.2 337 5.9 100440 85
2008-10-31 09:10 51°26.326 2°50.381 14.2 338 6 100420 85
2008-10-31 09:11 51°26.423 2°50.613 13.6 336 5.9 100430 84
2008-10-31 09:12 51°26.521 2°50.843 12.4 338 6 100430 83
2008-10-31 09:13 51°26.621 2°51.066 11.4 338 6.1 100440 84
2008-10-31 09:14 51°26.71 2°51.304 12.7 337 6 100440 82
2008-10-31 09:15 51°26.801 2°51.538 11.7 338 6 100430 83
2008-10-31 09:16 51°26.89 2°51.775 11.9 336 6 100440 83
2008-10-31 09:17 51°26.979 2°52.013 10.4 335 6.1 100450 83
2008-10-31 09:18 51°27.065 2°52.253 12.2 341 6.1 100440 84
2008-10-31 09:19 51°27.15 2°52.494 11.3 340 6.1 100430 84
2008-10-31 09:20 51°27.239 2°52.731 11.7 337 6 100440 83
2008-10-31 09:21 51°27.323 2°52.974 10.9 340 6.1 100450 85
2008-10-31 09:22 51°27.41 2°53.213 11.6 342 6 100430 84
2008-10-31 09:23 51°27.5 2°53.45 12.2 339 6 100450 84
2008-10-31 09:24 51°27.584 2°53.693 10.9 335 5.9 100440 84
2008-10-31 09:25 51°27.67 2°53.933 12.5 336 5.9 100440 84
2008-10-31 09:26 51°27.757 2°54.173 12.1 339 5.9 100450 85
2008-10-31 09:27 51°27.846 2°54.41 10.5 341 6 100440 86
2008-10-31 09:28 51°27.933 2°54.647 12.6 335 6.1 100430 86
2008-10-31 09:29 51°28.015 2°54.888 11.5 334 6.1 100450 85
2008-10-31 09:30 51°28.102 2°55.124 11.5 339 6.1 100430 85
2008-10-31 09:31 51°28.188 2°55.359 12.2 335 6 100440 86
2008-10-31 09:32 51°28.273 2°55.599 11.8 335 6 100450 86
2008-10-31 09:33 51°28.36 2°55.834 12.7 335 6.1 100430 86
2008-10-31 09:34 51°28.446 2°56.072 12.7 339 6 100420 83
2008-10-31 09:35 51°28.534 2°56.307 11.5 342 6.1 100440 84
2008-10-31 09:36 51°28.622 2°56.54 13.4 334 6 100430 84
2008-10-31 09:37 51°28.71 2°56.775 13 334 5.9 100440 83
2008-10-31 09:38 51°28.797 2°57.013 13.8 336 5.9 100440 82
2008-10-31 09:39 51°28.884 2°57.252 10.5 337 5.9 100450 81
2008-10-31 09:40 51°28.97 2°57.491 13.2 335 6 100450 82
2008-10-31 09:41 51°29.062 2°57.722 10.3 336 6 100440 82
2008-10-31 09:42 51°29.149 2°57.959 13.4 337 6 100440 83
2008-10-31 09:43 51°29.24 2°58.189 12 337 6 100440 83
2008-10-31 09:44 51°29.328 2°58.424 14.8 335 6 100440 83
2008-10-31 09:45 51°29.42 2°58.655 12.5 333 6 100440 84
2008-10-31 09:46 51°29.508 2°58.889 12.1 337 5.9 100440 84
2008-10-31 09:47 51°29.595 2°59.124 13.5 334 6 100440 85
2008-10-31 09:48 51°29.682 2°59.362 13.1 334 5.9 100450 84
2008-10-31 09:49 51°29.768 2°59.6 12.1 332 5.9 100450 85
2008-10-31 09:50 51°29.86 2°59.834 12.5 332 5.9 100450 85
2008-10-31 09:51 51°29.947 3°0.072 12.7 336 5.9 100450 86
2008-10-31 09:52 51°30.032 3°0.31 14 335 5.9 100440 85
2008-10-31 09:53 51°30.124 3°0.547 13.9 337 5.9 100450 84
2008-10-31 09:54 51°30.215 3°0.789 10.7 337 6 100470 84
2008-10-31 09:55 51°30.307 3°1.032 11.9 337 5.9 100460 82
2008-10-31 09:56 51°30.401 3°1.27 11.6 339 5.9 100450 83
2008-10-31 09:57 51°30.494 3°1.512 13.4 336 5.8 100470 82
2008-10-31 09:58 51°30.587 3°1.753 11 338 5.9 100460 85
2008-10-31 09:59 51°30.681 3°1.995 13.8 334 5.9 100470 84
2008-10-31 10:00 51°30.773 3°2.24 10.9 336 5.9 100460 84
2008-10-31 10:01 51°30.866 3°2.482 10.8 331 5.9 100470 85
2008-10-31 10:02 51°30.958 3°2.725 11.9 337 5.8 100470 85
2008-10-31 10:03 51°31.052 3°2.964 10.5 334 6 100480 85
2008-10-31 10:04 51°31.146 3°3.203 11.4 335 6 100470 85
2008-10-31 10:05 51°31.242 3°3.444 10 332 5.9 100490 84
2008-10-31 10:06 51°31.335 3°3.693 12.1 336 5.9 100480 85
2008-10-31 10:07 51°31.433 3°3.934 11.3 334 5.9 100480 86
2008-10-31 10:08 51°31.533 3°4.173 9.7 336 5.8 100490 85
2008-10-31 10:09 51°31.628 3°4.417 12.8 335 5.9 100480 86
2008-10-31 10:10 51°31.722 3°4.663 11.3 340 5.8 100490 85
2008-10-31 10:11 51°31.864 3°4.828 11.3 341 5.8 100470 85
2008-10-31 10:12 51°32.045 3°4.857 9.9 352 5.8 100480 85
2008-10-31 10:13 51°32.22 3°4.725 8.3 357 5.7 100490 85
2008-10-31 10:14 51°32.372 3°4.516 7.8 1 5.7 100490 85
2008-10-31 10:15 51°32.518 3°4.289 5.6 357 5.7 100500 85
2008-10-31 10:16 51°32.671 3°4.073 6.9 358 5.7 100490 86
2008-10-31 10:17 51°32.797 3°3.819 7.4 6 5.8 100500 87
2008-10-31 10:18 51°32.862 3°3.5 4.2 26 5.8 100500 86
2008-10-31 10:19 51°32.835 3°3.16 0.7 36 5.8 100520 87
2008-10-31 10:20 51°32.724 3°2.854 1.9 270 5.8 100520 87
2008-10-31 10:21 51°32.611 3°2.544 0.7 41 5.8 100520 86
2008-10-31 10:22 51°32.507 3°2.228 0.4 37 5.9 100530 86
2008-10-31 10:23 51°32.406 3°1.904 0.8 26 5.9 100530 86
2008-10-31 10:24 51°32.305 3°1.584 2.1 26 6 100530 86
2008-10-31 10:25 51°32.204 3°1.261 1.6 4 6 100520 86
2008-10-31 10:26 51°32.107 3°0.936 1.6 6 6 100530 86
2008-10-31 10:27 51°32.013 3°0.606 2.3 5 6 100530 87
2008-10-31 10:28 51°31.914 3°0.278 2.6 357 5.9 100520 87
2008-10-31 10:29 51°31.819 2°59.948 1.6 357 5.9 100520 87
2008-10-31 10:30 51°31.725 2°59.613 1.6 355 5.8 100530 87
2008-10-31 10:31 51°31.628 2°59.277 2.3 353 5.8 100530 86
2008-10-31 10:32 51°31.53 2°58.94 1 1 5.8 100530 87
2008-10-31 10:33 51°31.431 2°58.601 1.8 353 5.8 100530 87
2008-10-31 10:34 51°31.333 2°58.262 2 9 5.9 100530 88
2008-10-31 10:35 51°31.235 2°57.92 1.7 3 5.9 100520 88
2008-10-31 10:36 51°31.14 2°57.574 1.8 351 5.8 100530 87
2008-10-31 10:37 51°31.044 2°57.232 0.9 11 5.8 100530 87
2008-10-31 10:38 51°30.946 2°56.892 0.9 5 5.9 100530 87
2008-10-31 10:39 51°30.85 2°56.553 1.6 6 5.9 100530 87
2008-10-31 10:40 51°30.756 2°56.213 0.2 13 5.9 100530 87
2008-10-31 10:41 51°30.66 2°55.877 0.7 30 5.9 100530 86
2008-10-31 10:42 51°30.565 2°55.552 0.6 20 5.9 100540 86
2008-10-31 10:43 51°30.463 2°55.237 1.3 33 5.9 100530 87
2008-10-31 10:44 51°30.356 2°54.921 1.5 265 6 100540 87
2008-10-31 10:45 51°30.253 2°54.606 1.6 40 6.1 100540 87
2008-10-31 10:46 51°30.145 2°54.298 0.8 37 6.1 100550 87
2008-10-31 10:47 51°30.038 2°53.989 0.7 40 6.1 100550 86
2008-10-31 10:48 51°29.927 2°53.679 0.7 37 6.1 100550 86
2008-10-31 10:49 51°29.817 2°53.369 0.7 266 6.1 100540 85
2008-10-31 10:50 51°29.71 2°53.058 0.7 269 6.1 100550 85
2008-10-31 10:51 51°29.603 2°52.744 1.1 259 6.1 100540 85
2008-10-31 10:52 51°29.498 2°52.425 0.6 33 6.1 100540 85
2008-10-31 10:53 51°29.396 2°52.118 1.9 258 6.1 100540 85
2008-10-31 10:54 51°29.288 2°51.808 1.1 40 6.2 100540 85
2008-10-31 10:55 51°29.178 2°51.499 1 254 6.2 100540 85
2008-10-31 10:56 51°29.07 2°51.186 0.8 253 6.2 100540 84
2008-10-31 10:57 51°28.963 2°50.874 0.7 34 6.3 100550 85
2008-10-31 10:58 51°28.858 2°50.56 0.8 33 6.4 100550 85
2008-10-31 10:59 51°28.754 2°50.246 0.7 243 6.4 100550 85
2008-10-31 11:00 51°28.642 2°49.932 0.6 34 6.4 100540 84
2008-10-31 11:01 51°28.536 2°49.621 1.5 254 6.4 100550 84
2008-10-31 11:02 51°28.432 2°49.307 1 36 6.4 100550 84
2008-10-31 11:03 51°28.326 2°48.993 1 32 6.5 100550 84
2008-10-31 11:04 51°28.22 2°48.677 1 355 6.5 100550 84
2008-10-31 11:05 51°28.11 2°48.365 0.9 353 6.6 100550 84
2008-10-31 11:06 51°28.003 2°48.06 0.8 323 6.5 100550 83
2008-10-31 11:07 51°27.897 2°47.749 0.4 317 6.5 100540 83
2008-10-31 11:08 51°27.79 2°47.438 0.6 330 6.5 100550 83
2008-10-31 11:09 51°27.684 2°47.127 1.7 341 6.6 100550 84
2008-10-31 11:10 51°27.578 2°46.819 0.7 7 6.7 100550 85
2008-10-31 11:11 51°27.472 2°46.505 0.9 321 6.8 100540 85
2008-10-31 11:12 51°27.366 2°46.188 1.2 322 6.8 100550 85
2008-10-31 11:13 51°27.26 2°45.873 1.6 322 6.8 100540 85
2008-10-31 11:14 51°27.158 2°45.552 1.7 245 6.9 100540 85
2008-10-31 11:15 51°27.052 2°45.236 2.2 241 7 100540 86
2008-10-31 11:16 51°26.947 2°44.924 2 255 7 100540 86
2008-10-31 11:17 51°26.845 2°44.613 2.4 260 7 100540 85
2008-10-31 11:18 51°26.741 2°44.302 0.8 35 7 100530 84
2008-10-31 11:19 51°26.635 2°43.995 0.8 359 6.9 100540 84
2008-10-31 11:20 51°26.532 2°43.687 1.1 352 6.8 100540 83
2008-10-31 11:21 51°26.481 2°43.375 4.4 6 6.7 100540 83
2008-10-31 11:22 51°26.623 2°43.169 9 358 6.7 100530 84
2008-10-31 11:23 51°26.778 2°42.97 9.4 359 6.5 100520 84
2008-10-31 11:24 51°26.935 2°42.772 8.8 358 6.6 100530 84
2008-10-31 11:25 51°27.098 2°42.596 8.7 3 6.6 100520 84
2008-10-31 11:26 51°27.269 2°42.441 10.3 -999 6.6 100510 84
2008-10-31 11:27 51°27.443 2°42.297 9.2 353 6.6 100520 84
2008-10-31 11:28 51°27.608 2°42.395 12.6 338 6.6 100500 82
2008-10-31 11:29 51°27.7 2°42.67 13.4 332 6.6 100510 82
2008-10-31 11:30 51°27.794 2°42.953 12.2 337 6.6 100500 81
2008-10-31 11:31 51°27.901 2°43.225 11.4 335 6.6 100520 83
2008-10-31 11:32 51°28.007 2°43.497 13.3 332 6.5 100510 82
2008-10-31 11:33 51°28.109 2°43.775 14.7 335 6.5 100500 82
2008-10-31 11:34 51°28.208 2°44.057 14 334 6.5 100510 82
2008-10-31 11:35 51°28.308 2°44.339 14.4 334 6.6 100530 81
2008-10-31 11:36 51°28.406 2°44.623 14.6 333 6.6 100520 82
2008-10-31 11:37 51°28.504 2°44.907 12 331 6.6 100510 83
2008-10-31 11:38 51°28.604 2°45.189 12.7 332 6.6 100520 83
2008-10-31 11:39 51°28.701 2°45.472 13.2 333 6.6 100520 82
2008-10-31 11:40 51°28.797 2°45.757 12.7 335 6.7 100520 82
2008-10-31 11:41 51°28.896 2°46.039 13.3 335 6.6 100520 81
2008-10-31 11:42 51°28.995 2°46.322 14.5 334 6.6 100530 82
2008-10-31 11:43 51°29.091 2°46.603 11.5 332 6.7 100520 83
2008-10-31 11:44 51°29.186 2°46.886 12.5 330 6.5 100520 82
2008-10-31 11:45 51°29.282 2°47.171 13.4 334 6.5 100530 82
2008-10-31 11:46 51°29.386 2°47.448 14 336 6.5 100530 82
2008-10-31 11:47 51°29.487 2°47.728 13.9 332 6.6 100520 83
2008-10-31 11:48 51°29.589 2°48.009 14 333 6.5 100530 82
2008-10-31 11:49 51°29.692 2°48.289 12 334 6.5 100530 82
2008-10-31 11:50 51°29.788 2°48.578 13.8 334 6.4 100530 83
2008-10-31 11:51 51°29.884 2°48.868 13.4 334 6.4 100530 83
2008-10-31 11:52 51°29.982 2°49.156 13.8 335 6.4 100530 84
2008-10-31 11:53 51°30.082 2°49.442 12.3 338 6.4 100520 84
2008-10-31 11:54 51°30.186 2°49.724 12.2 339 6.3 100530 82
2008-10-31 11:55 51°30.287 2°50.011 14.7 336 6.4 100530 83
2008-10-31 11:56 51°30.383 2°50.302 11.8 337 6.3 100530 82
2008-10-31 11:57 51°30.488 2°50.585 13 337 6.3 100540 83
2008-10-31 11:58 51°30.588 2°50.881 11.6 339 6.3 100540 82
2008-10-31 11:59 51°30.69 2°51.16 13.1 338 6.4 100550 83
2008-10-31 12:00 51°30.817 2°51.415 12.9 340 6.3 100530 84
2008-10-31 12:01 51°30.96 2°51.645 10.4 337 6.4 100530 84
2008-10-31 12:02 51°31.107 2°51.874 12 344 6.4 100540 85
2008-10-31 12:03 51°31.258 2°52.092 11.2 341 6.4 100540 83
2008-10-31 12:04 51°31.412 2°52.303 13.4 344 6.4 100530 84
2008-10-31 12:05 51°31.573 2°52.509 12.5 344 6.3 100530 83
2008-10-31 12:06 51°31.729 2°52.714 12.7 342 6.3 100540 84
2008-10-31 12:07 51°31.891 2°52.916 10.9 343 6.5 100540 86
2008-10-31 12:08 51°32.055 2°53.112 10.8 342 6.3 100540 82
2008-10-31 12:09 51°32.218 2°53.312 13 344 6.4 100540 85
2008-10-31 12:10 51°32.387 2°53.5 12.1 344 6.5 100540 85
2008-10-31 12:11 51°32.554 2°53.694 13.3 344 6.4 100530 83
2008-10-31 12:12 51°32.724 2°53.894 10.7 346 6.4 100540 82
2008-10-31 12:13 51°32.887 2°54.09 12.3 346 6.4 100540 84
2008-10-31 12:14 51°33.051 2°54.292 12.2 339 6.4 100540 84
2008-10-31 12:15 51°33.216 2°54.497 11.8 343 6.4 100550 85
2008-10-31 12:16 51°33.367 2°54.728 11.4 339 6.5 100550 84
2008-10-31 12:17 51°33.494 2°54.999 13.2 339 6.5 100550 84
2008-10-31 12:18 51°33.623 2°55.269 11.2 337 6.5 100540 83
2008-10-31 12:19 51°33.743 2°55.552 14.1 338 6.6 100560 84
2008-10-31 12:20 51°33.838 2°55.86 13.5 338 6.5 100550 83
2008-10-31 12:21 51°33.918 2°56.187 12.1 335 6.5 100550 83
2008-10-31 12:22 51°33.997 2°56.501 12.9 334 6.4 100550 83
2008-10-31 12:23 51°34.081 2°56.823 12.4 337 6.5 100550 83
2008-10-31 12:24 51°34.171 2°57.128 12.4 335 6.5 100550 83
2008-10-31 12:25 51°34.262 2°57.438 11.7 335 6.5 100550 82
2008-10-31 12:26 51°34.352 2°57.75 11.8 337 6.5 100550 82
2008-10-31 12:27 51°34.437 2°58.07 13.4 335 6.6 100560 84
2008-10-31 12:28 51°34.521 2°58.387 13.7 332 6.6 100560 81
2008-10-31 12:29 51°34.606 2°58.701 12.2 335 6.5 100540 81
2008-10-31 12:30 51°34.696 2°59.017 12.8 331 6.5 100540 81
2008-10-31 12:31 51°34.778 2°59.331 12 338 6.6 100550 81
2008-10-31 12:32 51°34.863 2°59.656 13.5 337 6.5 100550 83
2008-10-31 12:33 51°34.962 2°59.951 12.8 341 6.5 100540 83
2008-10-31 12:34 51°35.142 3°0.094 8.2 352 6.4 100540 82
2008-10-31 12:35 51°35.312 2°59.965 6.2 1 6.4 100560 85
2008-10-31 12:36 51°35.383 2°59.676 3.2 356 6.4 100560 84
2008-10-31 12:37 51°35.441 2°59.376 3.3 347 6.4 100570 83
2008-10-31 12:38 51°35.485 2°59.078 2.8 353 6.4 100570 85
2008-10-31 12:39 51°35.463 2°58.776 0.9 336 6.3 100570 84
2008-10-31 12:40 51°35.402 2°58.486 1.5 246 6.3 100570 83
2008-10-31 12:41 51°35.338 2°58.198 2.1 242 6.4 100570 84
2008-10-31 12:42 51°35.263 2°57.917 2.7 236 6.5 100570 84
2008-10-31 12:43 51°35.176 2°57.642 3 34 6.6 100560 84
2008-10-31 12:44 51°35.092 2°57.366 2.2 31 6.6 100570 83
2008-10-31 12:45 51°35.005 2°57.093 2.3 241 6.6 100570 83
2008-10-31 12:46 51°34.916 2°56.82 3.8 32 6.7 100570 83
2008-10-31 12:47 51°34.825 2°56.552 2.4 244 6.7 100570 84
2008-10-31 12:48 51°34.73 2°56.285 3.5 35 6.8 100560 84
2008-10-31 12:49 51°34.641 2°56.013 2.9 234 6.8 100560 84
2008-10-31 12:50 51°34.551 2°55.744 2.6 241 6.8 100560 84
2008-10-31 12:51 51°34.458 2°55.479 2.2 32 6.7 100560 83
2008-10-31 12:52 51°34.36 2°55.219 2 25 6.7 100570 82
2008-10-31 12:53 51°34.262 2°54.959 2 245 6.7 100560 82
2008-10-31 12:54 51°34.167 2°54.698 1.3 21 6.7 100570 83
2008-10-31 12:55 51°34.07 2°54.442 2.1 258 6.8 100560 83
2008-10-31 12:56 51°33.975 2°54.187 1.5 262 6.8 100560 82
2008-10-31 12:57 51°33.881 2°53.929 2.5 22 6.7 100560 82
2008-10-31 12:58 51°33.787 2°53.672 2.7 239 6.9 100560 84
2008-10-31 12:59 51°33.696 2°53.412 2.5 20 6.9 100560 84
2008-10-31 13:00 51°33.606 2°53.154 2.1 236 6.9 100570 83
2008-10-31 13:01 51°33.512 2°52.895 1.5 247 6.9 100570 82
2008-10-31 13:02 51°33.42 2°52.637 0.6 353 6.9 100570 82
2008-10-31 13:03 51°33.327 2°52.381 1.1 329 6.9 100570 83
2008-10-31 13:04 51°33.237 2°52.123 1.2 333 6.9 100560 82
2008-10-31 13:05 51°33.149 2°51.862 1.3 349 6.8 100570 82
2008-10-31 13:06 51°33.058 2°51.601 3.1 344 6.8 100560 81
2008-10-31 13:07 51°32.97 2°51.338 3.5 327 6.9 100560 83
2008-10-31 13:08 51°32.878 2°51.078 1.9 355 7 100570 83
2008-10-31 13:09 51°32.787 2°50.821 0.8 320 7 100570 83
2008-10-31 13:10 51°32.696 2°50.565 0.9 334 7 100560 83
2008-10-31 13:11 51°32.607 2°50.305 2.2 318 7.1 100560 83
2008-10-31 13:12 51°32.518 2°50.042 2.1 239 7.2 100560 84
2008-10-31 13:13 51°32.427 2°49.785 1.9 27 7.2 100560 83
2008-10-31 13:14 51°32.34 2°49.528 2.3 236 7.2 100560 82
2008-10-31 13:15 51°32.253 2°49.269 1.4 254 7.2 100560 83
2008-10-31 13:16 51°32.163 2°49.014 2.1 321 7.2 100560 83
2008-10-31 13:17 51°32.077 2°48.757 0.9 36 7.1 100560 81
2008-10-31 13:18 51°31.993 2°48.501 0.7 330 7.1 100550 81
2008-10-31 13:19 51°31.906 2°48.246 0.8 331 7.1 100550 81
2008-10-31 13:20 51°31.818 2°47.995 0.7 330 7.2 100550 81
2008-10-31 13:21 51°31.732 2°47.743 0.4 24 7.2 100540 81
2008-10-31 13:22 51°31.647 2°47.491 1.5 10 7.3 100550 81
2008-10-31 13:23 51°31.563 2°47.24 1.1 316 7.3 100550 81
2008-10-31 13:24 51°31.476 2°46.989 0.5 32 7.4 100550 81
2008-10-31 13:25 51°31.395 2°46.735 1.1 3 7.4 100550 82
2008-10-31 13:26 51°31.311 2°46.484 1.5 19 7.4 100550 80
2008-10-31 13:27 51°31.229 2°46.23 1.1 3 7.4 100540 79
2008-10-31 13:28 51°31.146 2°45.978 0.5 23 7.3 100540 79
2008-10-31 13:29 51°31.064 2°45.721 1.7 32 7.3 100540 79
2008-10-31 13:30 51°30.979 2°45.467 1.5 22 7.3 100540 77
2008-10-31 13:31 51°30.896 2°45.21 1.2 18 7.3 100540 78
2008-10-31 13:32 51°30.811 2°44.951 1.3 3 7.3 100540 78
2008-10-31 13:33 51°30.725 2°44.696 2.2 15 7.4 100540 78
2008-10-31 13:34 51°30.641 2°44.44 0.8 25 7.4 100550 79
2008-10-31 13:35 51°30.561 2°44.183 0.7 40 7.5 100540 78
2008-10-31 13:36 51°30.482 2°43.928 1.8 22 7.5 100540 77
2008-10-31 13:37 51°30.399 2°43.673 0.8 35 7.5 100540 79
2008-10-31 13:38 51°30.317 2°43.418 2.3 31 7.6 100540 79
2008-10-31 13:39 51°30.235 2°43.165 1.1 21 7.5 100540 78
2008-10-31 13:40 51°30.155 2°42.91 1.9 24 7.5 100540 78
2008-10-31 13:41 51°30.076 2°42.652 1.8 37 7.5 100540 78
2008-10-31 13:42 51°29.993 2°42.396 2 26 7.5 100540 78
2008-10-31 13:43 51°29.909 2°42.142 1.1 41 7.5 100540 77
2008-10-31 13:44 51°29.822 2°41.893 1.2 19 7.5 100540 78
2008-10-31 13:45 51°29.723 2°41.657 1.8 25 7.6 100540 79
2008-10-31 13:46 51°29.627 2°41.417 2.2 27 7.6 100530 79
2008-10-31 13:47 51°29.527 2°41.178 1 27 7.5 100540 78
2008-10-31 13:48 51°29.423 2°40.945 2.5 28 7.6 100540 79
2008-10-31 13:49 51°29.313 2°40.716 1.3 263 7.6 100550 78
2008-10-31 13:50 51°29.199 2°40.493 3.2 270 7.6 100540 78
2008-10-31 13:51 51°29.054 2°40.316 4.5 250 7.6 100540 76
2008-10-31 13:52 51°28.888 2°40.196 5.2 255 7.6 100540 78
2008-10-31 13:53 51°28.72 2°40.078 5.2 254 7.7 100540 78
2008-10-31 13:54 51°28.546 2°39.978 6.1 254 7.7 100550 80
2008-10-31 13:55 51°28.374 2°39.875 4.8 254 7.7 100540 78
2008-10-31 13:56 51°28.201 2°39.777 4.2 255 7.7 100550 79
2008-10-31 13:57 51°28.025 2°39.693 5.7 252 7.7 100540 79
2008-10-31 13:58 51°27.84 2°39.715 8.6 243 7.7 100530 79
2008-10-31 13:59 51°27.66 2°39.828 9.4 21 7.7 100520 79
2008-10-31 14:00 51°27.487 2°39.951 8.5 242 7.6 100530 80
2008-10-31 14:01 51°27.313 2°40.071 9.6 24 7.6 100530 81
2008-10-31 14:02 51°27.137 2°40.186 9.7 239 7.6 100520 80
2008-10-31 14:03 51°26.962 2°40.301 10.8 20 7.5 100530 79
2008-10-31 14:04 51°26.79 2°40.434 9.2 244 7.4 100530 80
2008-10-31 14:05 51°26.619 2°40.575 10.1 21 7.5 100530 80
2008-10-31 14:06 51°26.451 2°40.722 8.2 242 7.4 100530 79
2008-10-31 14:07 51°26.283 2°40.87 9.3 242 7.4 100530 81
2008-10-31 14:08 51°26.116 2°41.02 10.5 241 7.4 100530 81
2008-10-31 14:09 51°25.95 2°41.168 8.4 243 7.5 100530 81
2008-10-31 14:10 51°25.781 2°41.304 8.9 236 7.5 100530 79
2008-10-31 14:11 51°25.611 2°41.442 9.5 20 7.5 100520 80
2008-10-31 14:12 51°25.441 2°41.583 8.3 235 7.4 100530 81
2008-10-31 14:13 51°25.272 2°41.719 7.7 22 7.4 100530 81
2008-10-31 14:14 51°25.103 2°41.857 9.6 235 7.4 100520 81
2008-10-31 14:15 51°24.938 2°42.001 7.1 25 7.4 100520 81
2008-10-31 14:16 51°24.77 2°42.143 9.2 25 7.4 100520 81
2008-10-31 14:17 51°24.605 2°42.287 10.2 21 7.4 100520 81
2008-10-31 14:18 51°24.441 2°42.402 7.9 21 7.4 100520 81
2008-10-31 14:19 51°24.264 2°42.463 6.1 20 7.4 100520 80
2008-10-31 14:20 51°24.087 2°42.492 7.4 245 7.4 100520 79
2008-10-31 14:21 51°23.908 2°42.522 5.7 21 7.4 100530 80
2008-10-31 14:22 51°23.728 2°42.552 6.1 25 7.5 100530 79
2008-10-31 14:23 51°23.551 2°42.586 5.5 248 7.5 100520 78
2008-10-31 14:24 51°23.376 2°42.618 7 21 7.5 100520 78
2008-10-31 14:25 51°23.199 2°42.647 6.1 245 7.5 100530 78
2008-10-31 14:26 51°23.024 2°42.682 5.3 27 7.6 100530 78
2008-10-31 14:27 51°22.847 2°42.714 5.1 239 7.7 100530 80
2008-10-31 14:28 51°22.67 2°42.748 6.5 18 7.7 100520 79
2008-10-31 14:29 51°22.493 2°42.777 5.7 20 7.7 100520 79
2008-10-31 14:30 51°22.313 2°42.805 4.5 24 7.6 100520 79
2008-10-31 14:31 51°22.134 2°42.854 9.9 26 7.6 100520 78
2008-10-31 14:32 51°21.974 2°43.014 9.5 26 7.6 100510 78
2008-10-31 14:33 51°21.821 2°43.201 10.9 26 7.7 100500 78
2008-10-31 14:34 51°21.669 2°43.386 9.1 20 7.7 100500 80
2008-10-31 14:35 51°21.515 2°43.569 9 24 7.6 100490 80
2008-10-31 14:36 51°21.36 2°43.75 7.6 19 7.6 100500 80
2008-10-31 14:37 51°21.206 2°43.932 8.4 24 7.6 100500 79
2008-10-31 14:38 51°21.054 2°44.122 7.8 24 7.6 100500 78
2008-10-31 14:39 51°20.902 2°44.308 8.5 27 7.6 100510 77
2008-10-31 14:40 51°20.75 2°44.495 8.3 23 7.6 100510 77
2008-10-31 14:41 51°20.614 2°44.669 7.7 238 7.6 100510 76
2008-10-31 14:42 51°20.483 2°44.835 8 24 7.6 100510 76
2008-10-31 14:43 51°20.349 2°44.996 9 26 7.6 100510 75
2008-10-31 14:44 51°20.216 2°45.168 9.2 23 7.6 100510 77
2008-10-31 14:45 51°20.082 2°45.339 8.4 23 7.6 100510 77
2008-10-31 14:46 51°19.954 2°45.519 6.9 19 7.6 100510 77
2008-10-31 14:47 51°19.827 2°45.7 8.5 24 7.6 100510 76
2008-10-31 14:48 51°19.694 2°45.875 8.6 19 7.6 100520 76
2008-10-31 14:49 51°19.558 2°46.045 8.1 25 7.6 100520 78
2008-10-31 14:50 51°19.422 2°46.215 10 22 7.6 100510 77
2008-10-31 14:51 51°19.286 2°46.382 7.7 25 7.6 100510 77
2008-10-31 14:52 51°19.148 2°46.55 9.4 237 7.6 100510 76
2008-10-31 14:53 51°19.013 2°46.716 8.7 238 7.6 100500 78
2008-10-31 14:54 51°18.879 2°46.884 9.2 242 7.6 100510 78
2008-10-31 14:55 51°18.75 2°47.051 9 242 7.6 100500 79
2008-10-31 14:56 51°18.615 2°47.218 11.1 239 7.6 100500 80
2008-10-31 14:57 51°18.485 2°47.378 10 241 7.5 100500 80
2008-10-31 14:58 51°18.349 2°47.545 7.4 242 7.5 100510 80
2008-10-31 14:59 51°18.219 2°47.706 7.2 240 7.5 100500 80
2008-10-31 15:00 51°18.084 2°47.866 8.9 237 7.5 100500 80
2008-10-31 15:01 51°17.947 2°48.025 10.3 237 7.5 100510 79
2008-10-31 15:02 51°17.812 2°48.181 7.7 32 7.4 100510 80
2008-10-31 15:03 51°17.677 2°48.341 9.3 239 7.5 100510 79
2008-10-31 15:04 51°17.541 2°48.505 8.9 242 7.5 100500 79
2008-10-31 15:05 51°17.406 2°48.673 10.5 237 7.4 100520 80
2008-10-31 15:06 51°17.268 2°48.841 9 240 7.4 100510 79
2008-10-31 15:07 51°17.13 2°49.01 8 245 7.4 100530 78
2008-10-31 15:08 51°16.991 2°49.179 8.1 240 7.4 100530 79
2008-10-31 15:09 51°16.858 2°49.347 12 242 7.4 100530 79
2008-10-31 15:10 51°16.72 2°49.518 9.7 33 7.4 100520 79
2008-10-31 15:11 51°16.583 2°49.691 9.7 33 7.3 100530 77
2008-10-31 15:12 51°16.444 2°49.862 10.3 33 7.3 100540 77
2008-10-31 15:13 51°16.295 2°50.038 10.3 33 7.3 100530 78
2008-10-31 15:14 51°16.146 2°50.229 11.6 33 7.3 100530 76
2008-10-31 15:15 51°16.04 2°50.479 10.1 32 7.2 100520 78
2008-10-31 15:16 51°15.944 2°50.754 8.9 38 7.2 100530 79
2008-10-31 15:17 51°15.85 2°51.034 12 33 7.2 100520 79
2008-10-31 15:18 51°15.785 2°51.326 12.6 39 7.2 100530 78
2008-10-31 15:19 51°15.719 2°51.624 9 317 7.2 100530 77
2008-10-31 15:20 51°15.646 2°51.916 11.7 316 7.2 100530 78
2008-10-31 15:21 51°15.572 2°52.206 10.1 317 7.3 100540 79
2008-10-31 15:22 51°15.484 2°52.485 12.2 35 7.2 100520 78
2008-10-31 15:23 51°15.378 2°52.746 9.8 315 7.2 100530 77
2008-10-31 15:24 51°15.265 2°53.022 11.6 31 7.3 100530 78
2008-10-31 15:25 51°15.15 2°53.304 10 36 7.3 100520 78
2008-10-31 15:26 51°15.038 2°53.574 12 27 7.3 100510 78
2008-10-31 15:27 51°14.916 2°53.841 10.6 36 7.4 100520 79
2008-10-31 15:28 51°14.801 2°54.112 12.2 322 7.4 100540 80
2008-10-31 15:29 51°14.683 2°54.387 12.5 315 7.4 100540 82
2008-10-31 15:30 51°14.561 2°54.65 11.9 318 7.3 100550 81
2008-10-31 15:31 51°14.438 2°54.915 11.5 320 7.2 100550 80
2008-10-31 15:32 51°14.308 2°55.161 9.2 325 7.1 100550 81
2008-10-31 15:33 51°14.172 2°55.368 7.3 320 7 100560 81
2008-10-31 15:34 51°14.059 2°55.466 7.4 316 6.9 100570 81